createdAt,value
2017-10-29T00:01:33.601Z,69.00
2017-10-29T00:04:02.815Z,68.90
2017-10-29T00:06:31.144Z,69.10
2017-10-29T00:09:00.195Z,69.40
2017-10-29T00:11:28.507Z,69.20
2017-10-29T00:13:56.805Z,69.50
2017-10-29T00:16:25.107Z,69.80
2017-10-29T00:18:53.375Z,69.50
2017-10-29T00:21:21.652Z,69.70
2017-10-29T00:23:49.963Z,69.50
2017-10-29T00:26:19.230Z,69.80
2017-10-29T00:28:47.519Z,70.30
2017-10-29T00:31:15.767Z,69.90
2017-10-29T00:33:45.640Z,69.90
2017-10-29T00:36:13.910Z,69.80
2017-10-29T00:38:43.701Z,70.00
2017-10-29T00:41:12.750Z,69.80
2017-10-29T00:43:42.783Z,69.80
2017-10-29T00:46:11.930Z,69.60
2017-10-29T00:48:40.209Z,69.70
2017-10-29T00:51:09.846Z,69.80
2017-10-29T00:53:38.897Z,69.80
2017-10-29T00:56:08.073Z,69.70
2017-10-29T00:58:36.355Z,69.80
2017-10-29T01:01:04.644Z,69.70
2017-10-29T01:03:34.455Z,69.70
2017-10-29T01:06:03.542Z,69.80
2017-10-29T01:08:31.817Z,69.80
2017-10-29T01:11:00.404Z,69.70
2017-10-29T01:13:28.667Z,69.70
2017-10-29T01:15:56.936Z,69.70
2017-10-29T01:18:25.238Z,69.60
2017-10-29T01:20:53.491Z,69.90
2017-10-29T01:23:21.854Z,69.90
2017-10-29T01:25:50.856Z,70.30
2017-10-29T01:28:19.139Z,70.00
2017-10-29T01:30:47.464Z,69.90
2017-10-29T01:33:16.492Z,69.80
2017-10-29T01:35:44.946Z,69.90
2017-10-29T01:38:14.018Z,70.00
2017-10-29T01:40:43.934Z,69.70
2017-10-29T01:43:13.732Z,69.90
2017-10-29T01:45:42.020Z,69.60
2017-10-29T01:48:12.777Z,69.90
2017-10-29T01:50:41.031Z,69.60
2017-10-29T01:53:09.324Z,69.70
2017-10-29T01:55:39.107Z,69.90
2017-10-29T01:58:07.412Z,70.00
2017-10-29T02:00:36.471Z,69.80
2017-10-29T02:03:04.792Z,69.60
2017-10-29T02:05:33.094Z,69.80
2017-10-29T02:08:02.146Z,69.50
2017-10-29T02:10:31.398Z,70.30
2017-10-29T02:12:59.658Z,69.80
2017-10-29T02:15:28.731Z,69.80
2017-10-29T02:17:56.991Z,69.50
2017-10-29T02:20:25.260Z,70.30
2017-10-29T02:22:53.536Z,71.20
2017-10-29T02:25:21.794Z,70.70
2017-10-29T02:27:50.067Z,70.90
2017-10-29T02:30:18.384Z,70.60
2017-10-29T02:32:47.430Z,70.20
2017-10-29T02:35:15.709Z,70.50
2017-10-29T02:37:44.015Z,69.70
2017-10-29T02:40:13.098Z,69.60
2017-10-29T02:42:41.356Z,69.40
2017-10-29T02:45:09.645Z,69.60
2017-10-29T02:47:37.932Z,69.60
2017-10-29T02:50:06.187Z,69.80
2017-10-29T02:52:34.590Z,69.50
2017-10-29T02:55:04.366Z,69.70
2017-10-29T02:57:32.633Z,69.60
2017-10-29T03:00:01.760Z,68.50
2017-10-29T03:02:34.950Z,68.50
2017-10-29T03:05:03.924Z,68.10
2017-10-29T03:07:32.214Z,67.90
2017-10-29T03:10:01.097Z,67.90
2017-10-29T03:12:30.912Z,67.90
2017-10-29T03:15:00.897Z,67.90
2017-10-29T03:17:34.292Z,68.10
2017-10-29T03:20:04.768Z,67.70
2017-10-29T03:22:34.096Z,68.00
2017-10-29T03:25:02.457Z,67.80
2017-10-29T03:27:31.471Z,67.30
2017-10-29T03:30:01.053Z,66.60
2017-10-29T03:32:31.249Z,67.30
2017-10-29T03:34:59.613Z,67.00
2017-10-29T03:37:30.619Z,66.90
2017-10-29T03:39:59.878Z,66.90
2017-10-29T03:42:28.523Z,66.60
2017-10-29T03:45:01.121Z,67.30
2017-10-29T03:47:32.287Z,68.70
2017-10-29T03:50:00.774Z,69.90
2017-10-29T03:52:29.080Z,68.80
2017-10-29T03:54:59.087Z,68.70
2017-10-29T03:57:29.354Z,68.90
2017-10-29T03:59:58.508Z,68.60
2017-10-29T04:02:28.097Z,68.70
2017-10-29T04:04:56.787Z,68.00
2017-10-29T04:07:25.433Z,67.70
2017-10-29T04:09:53.732Z,66.70
2017-10-29T04:12:22.929Z,67.10
2017-10-29T04:14:53.121Z,67.30
2017-10-29T04:17:21.520Z,67.60
2017-10-29T04:19:53.072Z,67.70
2017-10-29T04:22:21.338Z,67.40
2017-10-29T04:24:50.370Z,66.70
2017-10-29T04:27:18.638Z,66.40
2017-10-29T04:29:46.936Z,65.50
2017-10-29T04:32:15.282Z,65.40
2017-10-29T04:34:43.534Z,65.10
2017-10-29T04:37:12.585Z,64.80
2017-10-29T04:39:40.978Z,64.60
2017-10-29T04:42:11.616Z,64.50
2017-10-29T04:44:39.998Z,64.60
2017-10-29T04:47:09.770Z,63.90
2017-10-29T04:49:38.114Z,63.50
2017-10-29T04:52:06.379Z,63.20
2017-10-29T04:54:35.418Z,63.10
2017-10-29T04:57:04.534Z,63.00
2017-10-29T04:59:33.031Z,62.70
2017-10-29T05:02:01.309Z,62.60
2017-10-29T05:04:29.603Z,62.00
2017-10-29T05:06:58.635Z,61.30
2017-10-29T05:09:26.914Z,61.20
2017-10-29T05:11:55.189Z,61.20
2017-10-29T05:14:24.307Z,60.90
2017-10-29T05:16:53.511Z,60.10
2017-10-29T05:19:22.824Z,60.20
2017-10-29T05:21:51.960Z,60.30
2017-10-29T05:24:21.032Z,59.50
2017-10-29T05:26:50.060Z,60.00
2017-10-29T05:29:19.226Z,59.80
2017-10-29T05:31:48.349Z,59.40
2017-10-29T05:34:16.618Z,59.50
2017-10-29T05:36:45.737Z,59.70
2017-10-29T05:39:14.130Z,60.20
2017-10-29T05:41:42.510Z,59.50
2017-10-29T05:44:10.800Z,59.70
2017-10-29T05:46:41.448Z,59.50
2017-10-29T05:49:09.745Z,59.60
2017-10-29T05:51:38.839Z,59.20
2017-10-29T05:54:08.841Z,59.50
2017-10-29T05:56:37.155Z,59.60
2017-10-29T05:59:05.511Z,59.90
2017-10-29T06:01:34.739Z,58.30
2017-10-29T06:04:04.108Z,58.30
2017-10-29T06:06:33.281Z,57.20
2017-10-29T06:09:02.614Z,57.40
2017-10-29T06:11:32.499Z,55.30
2017-10-29T06:14:01.796Z,54.60
2017-10-29T06:16:31.042Z,54.40
2017-10-29T06:19:00.331Z,53.90
2017-10-29T06:21:29.631Z,53.70
2017-10-29T06:23:57.938Z,53.20
2017-10-29T06:26:26.390Z,52.30
2017-10-29T06:28:54.714Z,52.40
2017-10-29T06:31:22.979Z,53.00
2017-10-29T06:33:51.249Z,52.60
2017-10-29T06:36:19.526Z,52.50
2017-10-29T06:38:47.788Z,51.10
2017-10-29T06:41:24.249Z,50.90
2017-10-29T06:43:52.543Z,50.10
2017-10-29T06:46:20.824Z,49.10
2017-10-29T06:48:49.077Z,49.20
2017-10-29T06:54:17.294Z,49.20
2017-10-29T06:56:45.738Z,49.10
2017-10-29T06:59:14.172Z,48.80
2017-10-29T07:01:42.474Z,48.00
2017-10-29T07:04:11.508Z,49.70
2017-10-29T07:06:39.775Z,49.30
2017-10-29T07:09:08.066Z,48.80
2017-10-29T07:11:37.186Z,49.00
2017-10-29T07:14:05.462Z,49.20
2017-10-29T07:16:33.731Z,49.10
2017-10-29T07:19:03.239Z,49.30
2017-10-29T07:21:31.499Z,49.30
2017-10-29T07:23:59.767Z,49.40
2017-10-29T07:26:28.176Z,48.60
2017-10-29T07:28:57.961Z,47.70
2017-10-29T07:31:26.235Z,47.70
2017-10-29T07:33:55.382Z,47.50
2017-10-29T07:36:23.624Z,47.30
2017-10-29T07:38:52.351Z,47.60
2017-10-29T07:41:20.658Z,47.40
2017-10-29T07:46:57.839Z,47.30
2017-10-29T07:49:26.898Z,47.50
2017-10-29T07:51:55.235Z,47.10
2017-10-29T07:54:23.543Z,47.30
2017-10-29T07:56:51.821Z,47.20
2017-10-29T07:59:20.091Z,47.60
2017-10-29T08:01:48.347Z,47.30
2017-10-29T08:04:16.664Z,47.10
2017-10-29T08:06:44.973Z,46.90
2017-10-29T08:09:13.229Z,46.70
2017-10-29T08:11:41.519Z,46.60
2017-10-29T08:14:11.402Z,46.90
2017-10-29T08:16:40.515Z,46.90
2017-10-29T08:19:08.777Z,46.80
2017-10-29T08:21:37.483Z,47.30
2017-10-29T08:24:08.240Z,47.00
2017-10-29T08:26:37.314Z,47.40
2017-10-29T08:29:07.102Z,47.30
2017-10-29T08:31:35.369Z,47.90
2017-10-29T08:34:03.705Z,46.90
2017-10-29T08:36:32.763Z,47.00
2017-10-29T08:39:01.838Z,46.80
2017-10-29T08:41:30.148Z,47.40
2017-10-29T08:43:58.408Z,46.70
2017-10-29T08:46:26.882Z,47.10
2017-10-29T08:48:55.321Z,46.50
2017-10-29T08:51:24.318Z,47.10
2017-10-29T08:53:53.464Z,47.10
2017-10-29T08:56:21.739Z,47.10
2017-10-29T08:58:50.027Z,47.30
2017-10-29T09:01:19.286Z,47.00
2017-10-29T09:03:48.528Z,46.70
2017-10-29T09:06:18.311Z,46.80
2017-10-29T09:08:46.638Z,46.70
2017-10-29T09:11:14.984Z,47.20
2017-10-29T09:13:44.879Z,46.70
2017-10-29T09:16:13.182Z,46.80
2017-10-29T09:18:43.783Z,47.10
2017-10-29T09:21:12.110Z,47.00
2017-10-29T09:23:41.254Z,46.90
2017-10-29T09:26:10.499Z,47.10
2017-10-29T09:28:39.639Z,46.80
2017-10-29T09:31:07.927Z,47.00
2017-10-29T09:33:36.199Z,46.30
2017-10-29T09:36:04.519Z,46.80
2017-10-29T09:38:32.756Z,46.60
2017-10-29T09:41:01.053Z,46.10
2017-10-29T09:43:29.368Z,46.20
2017-10-29T09:45:58.408Z,46.30
2017-10-29T09:48:26.666Z,46.00
2017-10-29T09:50:54.971Z,46.40
2017-10-29T09:53:23.228Z,46.00
2017-10-29T09:55:51.689Z,45.80
2017-10-29T09:58:20.043Z,46.00
2017-10-29T10:00:49.088Z,45.90
2017-10-29T10:03:24.483Z,45.90
2017-10-29T10:05:53.543Z,45.40
2017-10-29T10:08:22.625Z,44.80
2017-10-29T10:10:52.643Z,45.00
2017-10-29T10:13:20.955Z,45.30
2017-10-29T10:15:52.581Z,44.50
2017-10-29T10:18:21.468Z,44.50
2017-10-29T10:20:49.775Z,46.60
2017-10-29T10:23:20.436Z,48.40
2017-10-29T10:25:48.890Z,48.40
2017-10-29T10:28:17.155Z,48.30
2017-10-29T10:30:45.458Z,48.10
2017-10-29T10:33:15.511Z,48.00
2017-10-29T10:35:43.812Z,47.90
2017-10-29T10:38:12.122Z,48.30
2017-10-29T10:40:42.122Z,49.60
2017-10-29T10:43:11.163Z,49.20
2017-10-29T10:45:40.203Z,48.70
2017-10-29T10:48:08.476Z,48.60
2017-10-29T10:50:39.290Z,48.50
2017-10-29T10:53:07.547Z,48.50
2017-10-29T10:55:36.015Z,48.50
2017-10-29T10:58:04.652Z,48.70
2017-10-29T11:00:32.925Z,48.90
2017-10-29T11:03:01.325Z,48.90
2017-10-29T11:05:29.625Z,49.10
2017-10-29T11:07:58.659Z,49.20
2017-10-29T11:10:26.914Z,49.10
2017-10-29T11:12:55.199Z,49.50
2017-10-29T11:15:23.503Z,48.30
2017-10-29T11:17:51.796Z,49.00
2017-10-29T11:20:20.097Z,48.10
2017-10-29T11:22:49.153Z,47.50
2017-10-29T11:25:18.348Z,47.20
2017-10-29T11:27:47.848Z,47.60
2017-10-29T11:30:18.307Z,47.40
2017-10-29T11:32:46.746Z,47.30
2017-10-29T11:35:16.689Z,47.30
2017-10-29T11:37:46.882Z,47.00
2017-10-29T11:40:15.873Z,47.20
2017-10-29T11:42:45.150Z,46.50
2017-10-29T11:45:17.630Z,47.70
2017-10-29T11:47:46.927Z,47.50
2017-10-29T11:50:17.734Z,48.30
2017-10-29T11:52:49.500Z,48.20
2017-10-29T11:55:18.841Z,47.00
2017-10-29T11:57:47.774Z,47.00
2017-10-29T12:00:16.155Z,47.00
2017-10-29T12:02:46.480Z,46.60
2017-10-29T12:05:15.565Z,47.00
2017-10-29T12:07:43.852Z,47.50
2017-10-29T12:10:12.167Z,47.30
2017-10-29T12:12:40.428Z,47.50
2017-10-29T12:15:09.542Z,47.70
2017-10-29T12:17:37.856Z,47.60
2017-10-29T12:20:06.116Z,47.90
2017-10-29T12:22:34.400Z,47.70
2017-10-29T12:25:03.656Z,48.60
2017-10-29T12:27:32.680Z,48.60
2017-10-29T12:30:00.932Z,48.10
2017-10-29T12:32:29.212Z,48.20
2017-10-29T12:34:57.536Z,48.70
2017-10-29T12:37:26.693Z,48.60
2017-10-29T12:39:56.535Z,48.70
2017-10-29T12:42:29.209Z,48.30
2017-10-29T12:44:58.552Z,48.20
2017-10-29T12:47:26.841Z,48.30
2017-10-29T12:49:56.745Z,48.10
2017-10-29T12:52:26.055Z,48.30
2017-10-29T12:54:54.343Z,48.20
2017-10-29T12:57:24.255Z,48.80
2017-10-29T12:59:53.429Z,49.30
2017-10-29T13:02:22.696Z,49.20
2017-10-29T13:04:50.976Z,49.90
2017-10-29T13:07:19.361Z,49.70
2017-10-29T13:09:47.623Z,49.40
2017-10-29T13:12:15.905Z,48.70
2017-10-29T13:14:44.209Z,48.10
2017-10-29T13:17:12.512Z,48.10
2017-10-29T13:19:40.802Z,47.80
2017-10-29T13:22:09.071Z,47.30
2017-10-29T13:24:38.244Z,46.50
2017-10-29T13:27:06.528Z,46.60
2017-10-29T13:29:36.574Z,46.90
2017-10-29T13:32:05.660Z,47.10
2017-10-29T13:34:34.740Z,46.90
2017-10-29T13:37:03.626Z,46.80
2017-10-29T13:39:31.987Z,47.00
2017-10-29T13:42:00.330Z,46.60
2017-10-29T13:44:28.614Z,46.80
2017-10-29T13:46:56.890Z,47.30
2017-10-29T13:49:25.200Z,46.90
2017-10-29T13:51:53.585Z,47.00
2017-10-29T13:54:21.869Z,46.90
2017-10-29T13:56:51.110Z,46.90
2017-10-29T13:59:20.264Z,47.00
2017-10-29T14:01:49.406Z,47.00
2017-10-29T14:04:18.663Z,45.60
2017-10-29T14:06:46.948Z,45.70
2017-10-29T14:09:16.855Z,46.60
2017-10-29T14:11:46.004Z,46.60
2017-10-29T14:14:15.191Z,46.80
2017-10-29T14:16:43.547Z,46.50
2017-10-29T14:19:12.611Z,44.70
2017-10-29T14:21:40.891Z,44.70
2017-10-29T14:26:44.403Z,43.70
2017-10-29T14:29:12.782Z,43.70
2017-10-29T14:31:41.063Z,43.80
2017-10-29T14:34:14.757Z,43.50
2017-10-29T14:36:43.051Z,43.70
2017-10-29T14:39:13.058Z,44.20
2017-10-29T14:41:41.379Z,43.90
2017-10-29T14:44:10.267Z,44.40
2017-10-29T14:46:39.361Z,44.30
2017-10-29T14:49:07.695Z,44.00
2017-10-29T14:51:36.868Z,44.40
2017-10-29T14:54:06.084Z,44.20
2017-10-29T14:56:34.421Z,44.10
2017-10-29T14:59:02.722Z,43.90
2017-10-29T15:01:31.043Z,44.00
2017-10-29T15:04:00.149Z,44.70
2017-10-29T15:06:30.196Z,44.30
2017-10-29T15:08:58.532Z,44.40
2017-10-29T15:11:26.916Z,44.30
2017-10-29T15:13:55.966Z,45.00
2017-10-29T15:16:24.322Z,45.10
2017-10-29T15:18:52.633Z,45.00
2017-10-29T15:21:20.996Z,45.20
2017-10-29T15:23:49.269Z,45.30
2017-10-29T15:26:17.572Z,46.00
2017-10-29T15:28:47.564Z,45.30
2017-10-29T15:31:15.988Z,45.20
2017-10-29T15:33:45.282Z,45.60
2017-10-29T15:36:14.483Z,45.30
2017-10-29T15:38:42.781Z,46.10
2017-10-29T15:41:11.055Z,45.10
2017-10-29T15:43:41.141Z,45.40
2017-10-29T15:46:09.434Z,45.70
2017-10-29T15:48:37.793Z,45.30
2017-10-29T15:51:06.078Z,45.40
2017-10-29T15:53:35.120Z,45.70
2017-10-29T15:56:03.479Z,45.50
2017-10-29T15:58:33.483Z,45.10
2017-10-29T16:01:02.562Z,44.80
2017-10-29T16:03:30.825Z,45.20
2017-10-29T16:05:59.222Z,45.80
2017-10-29T16:08:27.468Z,45.30
2017-10-29T16:10:55.789Z,45.30
2017-10-29T16:13:25.607Z,45.70
2017-10-29T16:15:54.063Z,45.60
2017-10-29T16:18:23.186Z,45.40
2017-10-29T16:20:52.451Z,45.50
2017-10-29T16:23:20.770Z,45.70
2017-10-29T16:25:49.911Z,45.90
2017-10-29T16:28:18.239Z,46.20
2017-10-29T16:30:47.388Z,46.00
2017-10-29T16:33:16.569Z,46.50
2017-10-29T16:35:45.181Z,46.20
2017-10-29T16:38:13.436Z,46.30
2017-10-29T16:40:41.853Z,46.70
2017-10-29T16:43:10.982Z,46.20
2017-10-29T16:45:39.247Z,46.20
2017-10-29T16:48:08.383Z,46.30
2017-10-29T16:50:36.685Z,46.60
2017-10-29T16:53:04.962Z,46.50
2017-10-29T16:55:33.280Z,46.80
2017-10-29T16:58:01.560Z,46.70
2017-10-29T17:00:29.866Z,46.90
2017-10-29T17:02:59.087Z,46.90
2017-10-29T17:05:27.362Z,46.80
2017-10-29T17:07:55.726Z,46.80
2017-10-29T17:10:28.503Z,46.90
2017-10-29T17:12:56.793Z,46.80
2017-10-29T17:15:25.858Z,47.60
2017-10-29T17:17:54.626Z,47.20
2017-10-29T17:20:24.025Z,47.30
2017-10-29T17:22:53.133Z,47.50
2017-10-29T17:25:21.440Z,47.70
2017-10-29T17:27:50.965Z,47.80
2017-10-29T17:30:19.446Z,47.90
2017-10-29T17:32:47.727Z,48.00
2017-10-29T17:35:16.968Z,47.70
2017-10-29T17:37:45.409Z,48.40
2017-10-29T17:40:13.675Z,48.40
2017-10-29T17:42:42.978Z,47.80
2017-10-29T17:45:11.277Z,48.10
2017-10-29T17:47:40.303Z,47.50
2017-10-29T17:50:10.408Z,48.20
2017-10-29T17:52:38.850Z,48.10
2017-10-29T17:55:07.190Z,48.10
2017-10-29T17:57:35.460Z,48.10
2017-10-29T18:00:04.003Z,48.50
2017-10-29T18:02:32.411Z,48.80
2017-10-29T18:05:05.642Z,48.60
2017-10-29T18:07:35.647Z,48.80
2017-10-29T18:10:04.680Z,48.90
2017-10-29T18:12:49.412Z,48.80
2017-10-29T18:15:19.360Z,49.50
2017-10-29T18:17:48.035Z,48.90
2017-10-29T18:20:18.765Z,49.10
2017-10-29T18:22:51.112Z,49.10
2017-10-29T18:25:22.002Z,49.10
2017-10-29T18:27:50.719Z,49.20
2017-10-29T18:30:22.297Z,48.80
2017-10-29T18:32:57.718Z,48.90
2017-10-29T18:35:31.089Z,49.10
2017-10-29T18:38:01.190Z,49.10
2017-10-29T18:40:29.808Z,49.10
2017-10-29T18:42:58.893Z,49.10
2017-10-29T18:45:27.295Z,49.10
2017-10-29T18:47:56.926Z,49.10
2017-10-29T18:50:25.243Z,49.00
2017-10-29T18:52:54.310Z,49.20
2017-10-29T18:55:22.604Z,49.40
2017-10-29T18:57:50.964Z,49.50
2017-10-29T19:00:19.242Z,49.40
2017-10-29T19:02:47.573Z,49.70
2017-10-29T19:05:15.891Z,49.20
2017-10-29T19:07:45.100Z,49.90
2017-10-29T19:10:17.617Z,50.40
2017-10-29T19:12:47.593Z,50.20
2017-10-29T19:15:15.875Z,50.30
2017-10-29T19:17:44.167Z,49.70
2017-10-29T19:20:12.431Z,50.00
2017-10-29T19:22:40.704Z,49.60
2017-10-29T19:25:09.819Z,50.40
2017-10-29T19:27:39.118Z,50.50
2017-10-29T19:30:11.367Z,50.00
2017-10-29T19:32:39.629Z,50.60
2017-10-29T19:35:12.919Z,50.70
2017-10-29T19:37:42.803Z,50.50
2017-10-29T19:40:11.809Z,50.40
2017-10-29T19:42:40.270Z,50.50
2017-10-29T19:45:08.544Z,50.50
2017-10-29T19:47:36.850Z,50.80
2017-10-29T19:50:05.940Z,50.60
2017-10-29T19:52:34.985Z,51.00
2017-10-29T19:55:04.125Z,50.90
2017-10-29T19:57:33.172Z,51.00
2017-10-29T20:00:01.437Z,51.00
2017-10-29T20:02:29.761Z,51.00
2017-10-29T20:04:59.540Z,51.20
2017-10-29T20:07:27.851Z,51.00
2017-10-29T20:09:56.129Z,51.10
2017-10-29T20:12:25.329Z,51.30
2017-10-29T20:14:53.627Z,51.20
2017-10-29T20:17:22.675Z,51.40
2017-10-29T20:19:50.992Z,51.50
2017-10-29T20:22:19.286Z,51.60
2017-10-29T20:24:47.633Z,51.60
2017-10-29T20:27:16.694Z,51.60
2017-10-29T20:29:44.978Z,51.50
2017-10-29T20:32:13.270Z,51.70
2017-10-29T20:34:43.163Z,52.30
2017-10-29T20:37:12.286Z,51.60
2017-10-29T20:39:40.535Z,51.90
2017-10-29T20:42:08.857Z,51.90
2017-10-29T20:44:37.889Z,52.00
2017-10-29T20:47:06.216Z,52.20
2017-10-29T20:49:34.512Z,52.00
2017-10-29T20:52:02.796Z,52.10
2017-10-29T20:54:31.151Z,52.40
2017-10-29T20:56:59.451Z,52.40
2017-10-29T20:59:27.729Z,52.60
2017-10-29T21:01:56.013Z,53.00
2017-10-29T21:04:25.223Z,52.70
2017-10-29T21:06:53.538Z,52.90
2017-10-29T21:09:21.840Z,53.10
2017-10-29T21:11:51.875Z,53.00
2017-10-29T21:14:20.184Z,53.10
2017-10-29T21:16:48.483Z,52.90
2017-10-29T21:19:16.846Z,53.30
2017-10-29T21:21:45.941Z,53.20
2017-10-29T21:24:14.256Z,53.30
2017-10-29T21:26:43.282Z,53.40
2017-10-29T21:29:12.415Z,53.60
2017-10-29T21:31:41.541Z,53.80
2017-10-29T21:34:10.696Z,53.70
2017-10-29T21:36:38.964Z,53.60
2017-10-29T21:39:07.231Z,53.90
2017-10-29T21:41:35.535Z,53.40
2017-10-29T21:44:03.813Z,53.50
2017-10-29T21:46:32.101Z,53.50
2017-10-29T21:49:00.392Z,53.40
2017-10-29T21:51:30.526Z,54.50
2017-10-29T21:53:59.583Z,53.50
2017-10-29T21:56:28.069Z,54.00
2017-10-29T21:58:58.145Z,54.30
2017-10-29T22:01:26.419Z,53.80
2017-10-29T22:03:54.730Z,53.80
2017-10-29T22:06:23.803Z,53.90
2017-10-29T22:08:53.099Z,54.00
2017-10-29T22:11:21.398Z,53.90
2017-10-29T22:13:49.691Z,54.10
2017-10-29T22:16:18.975Z,53.90
2017-10-29T22:18:47.253Z,54.10
2017-10-29T22:21:17.948Z,53.70
2017-10-29T22:23:47.213Z,53.80
2017-10-29T22:26:19.095Z,53.80
2017-10-29T22:28:47.520Z,54.40
2017-10-29T22:31:16.659Z,53.60
2017-10-29T22:33:45.715Z,53.60
2017-10-29T22:36:19.682Z,53.60
2017-10-29T22:38:48.700Z,53.70
2017-10-29T22:41:17.004Z,53.70
2017-10-29T22:43:45.270Z,53.60
2017-10-29T22:46:15.095Z,53.80
2017-10-29T22:48:43.360Z,53.60
2017-10-29T22:51:13.446Z,53.50
2017-10-29T22:53:42.483Z,53.50
2017-10-29T22:56:10.739Z,53.50
2017-10-29T22:58:39.036Z,53.50
2017-10-29T23:01:07.431Z,53.60
2017-10-29T23:03:36.578Z,53.80
2017-10-29T23:06:28.656Z,53.70
2017-10-29T23:08:57.711Z,54.20
2017-10-29T23:11:25.995Z,53.50
2017-10-29T23:13:54.294Z,53.80
2017-10-29T23:16:22.616Z,53.70
2017-10-29T23:18:51.756Z,54.00
2017-10-29T23:21:20.039Z,54.00
2017-10-29T23:23:48.300Z,54.00
2017-10-29T23:26:16.554Z,53.90
2017-10-29T23:28:45.007Z,54.10
2017-10-29T23:31:14.056Z,54.00
2017-10-29T23:33:42.325Z,54.10
2017-10-29T23:36:10.613Z,54.30
2017-10-29T23:38:38.901Z,53.90
2017-10-29T23:41:08.012Z,54.20
2017-10-29T23:43:37.068Z,54.30
2017-10-29T23:46:05.353Z,54.40
2017-10-29T23:48:33.671Z,54.20
2017-10-29T23:51:01.953Z,54.30
2017-10-29T23:53:31.517Z,54.50
2017-10-29T23:56:00.787Z,54.50
2017-10-29T23:58:29.193Z,54.60
